sensor_id;sensor_type;location;lat;lon;timestamp;temperature;humidity
73586;DHT22;61865;50.232;18.614;2022-07-21T00:01:46;16.80;91.90
73586;DHT22;61865;50.232;18.614;2022-07-21T00:04:07;16.70;92.80
73586;DHT22;61865;50.232;18.614;2022-07-21T00:06:31;16.70;93.20
73586;DHT22;61865;50.232;18.614;2022-07-21T00:08:53;16.70;93.30
73586;DHT22;61865;50.232;18.614;2022-07-21T00:11:14;16.70;93.90
73586;DHT22;61865;50.232;18.614;2022-07-21T00:13:36;16.70;93.80
73586;DHT22;61865;50.232;18.614;2022-07-21T00:15:58;16.70;93.50
73586;DHT22;61865;50.232;18.614;2022-07-21T00:18:20;16.60;92.60
73586;DHT22;61865;50.232;18.614;2022-07-21T00:20:42;16.60;92.70
73586;DHT22;61865;50.232;18.614;2022-07-21T00:23:05;16.60;92.90
73586;DHT22;61865;50.232;18.614;2022-07-21T00:25:27;16.40;91.00
73586;DHT22;61865;50.232;18.614;2022-07-21T00:27:49;16.40;93.00
73586;DHT22;61865;50.232;18.614;2022-07-21T00:30:13;16.30;93.90
73586;DHT22;61865;50.232;18.614;2022-07-21T00:32:35;16.30;94.30
73586;DHT22;61865;50.232;18.614;2022-07-21T00:34:57;16.30;94.40
73586;DHT22;61865;50.232;18.614;2022-07-21T00:37:19;16.30;94.30
73586;DHT22;61865;50.232;18.614;2022-07-21T00:39:45;16.30;93.80
73586;DHT22;61865;50.232;18.614;2022-07-21T00:42:07;16.30;93.40
73586;DHT22;61865;50.232;18.614;2022-07-21T00:44:29;16.30;91.90
73586;DHT22;61865;50.232;18.614;2022-07-21T00:46:52;16.30;92.00
73586;DHT22;61865;50.232;18.614;2022-07-21T00:49:14;16.20;92.40
73586;DHT22;61865;50.232;18.614;2022-07-21T00:51:36;16.10;94.90
73586;DHT22;61865;50.232;18.614;2022-07-21T00:53:58;16.00;95.50
73586;DHT22;61865;50.232;18.614;2022-07-21T00:56:22;15.90;96.70
73586;DHT22;61865;50.232;18.614;2022-07-21T00:58:44;15.80;96.70
73586;DHT22;61865;50.232;18.614;2022-07-21T01:01:05;15.90;95.00
73586;DHT22;61865;50.232;18.614;2022-07-21T01:03:27;15.90;94.80
73586;DHT22;61865;50.232;18.614;2022-07-21T01:05:49;15.90;94.00
73586;DHT22;61865;50.232;18.614;2022-07-21T01:08:12;15.90;95.20
73586;DHT22;61865;50.232;18.614;2022-07-21T01:10:34;15.90;94.80
73586;DHT22;61865;50.232;18.614;2022-07-21T01:12:57;15.90;94.20
73586;DHT22;61865;50.232;18.614;2022-07-21T01:15:20;15.90;94.10
73586;DHT22;61865;50.232;18.614;2022-07-21T01:17:43;16.00;94.20
73586;DHT22;61865;50.232;18.614;2022-07-21T01:20:06;16.00;93.80
73586;DHT22;61865;50.232;18.614;2022-07-21T01:22:31;16.00;93.90
73586;DHT22;61865;50.232;18.614;2022-07-21T01:24:53;16.00;94.00
73586;DHT22;61865;50.232;18.614;2022-07-21T01:27:15;16.00;93.90
73586;DHT22;61865;50.232;18.614;2022-07-21T01:29:37;16.00;94.10
73586;DHT22;61865;50.232;18.614;2022-07-21T01:31:59;16.00;94.70
73586;DHT22;61865;50.232;18.614;2022-07-21T01:34:20;16.10;94.40
73586;DHT22;61865;50.232;18.614;2022-07-21T01:36:42;16.10;94.50
73586;DHT22;61865;50.232;18.614;2022-07-21T01:39:06;16.10;94.10
73586;DHT22;61865;50.232;18.614;2022-07-21T01:41:46;16.20;93.90
73586;DHT22;61865;50.232;18.614;2022-07-21T01:44:10;16.20;93.70
73586;DHT22;61865;50.232;18.614;2022-07-21T01:46:37;16.30;93.60
73586;DHT22;61865;50.232;18.614;2022-07-21T01:49:00;16.30;93.30
73586;DHT22;61865;50.232;18.614;2022-07-21T01:51:22;16.30;93.10
73586;DHT22;61865;50.232;18.614;2022-07-21T01:53:44;16.40;92.80
73586;DHT22;61865;50.232;18.614;2022-07-21T01:56:08;16.40;92.50
73586;DHT22;61865;50.232;18.614;2022-07-21T01:58:30;16.40;92.30
73586;DHT22;61865;50.232;18.614;2022-07-21T02:00:52;16.30;92.30
73586;DHT22;61865;50.232;18.614;2022-07-21T02:03:14;16.30;92.20
73586;DHT22;61865;50.232;18.614;2022-07-21T02:05:35;16.30;92.50
73586;DHT22;61865;50.232;18.614;2022-07-21T02:07:57;16.30;92.80
73586;DHT22;61865;50.232;18.614;2022-07-21T02:10:19;16.30;93.10
73586;DHT22;61865;50.232;18.614;2022-07-21T02:12:42;16.20;93.40
73586;DHT22;61865;50.232;18.614;2022-07-21T02:15:06;16.10;93.80
73586;DHT22;61865;50.232;18.614;2022-07-21T02:17:28;16.00;94.00
73586;DHT22;61865;50.232;18.614;2022-07-21T02:19:49;16.00;94.00
73586;DHT22;61865;50.232;18.614;2022-07-21T02:22:11;16.00;93.70
73586;DHT22;61865;50.232;18.614;2022-07-21T02:24:33;16.00;93.50
73586;DHT22;61865;50.232;18.614;2022-07-21T02:26:56;16.00;93.40
73586;DHT22;61865;50.232;18.614;2022-07-21T02:29:19;16.00;93.20
73586;DHT22;61865;50.232;18.614;2022-07-21T02:31:41;15.90;92.70
73586;DHT22;61865;50.232;18.614;2022-07-21T02:34:03;15.90;92.80
73586;DHT22;61865;50.232;18.614;2022-07-21T02:36:26;15.90;92.90
73586;DHT22;61865;50.232;18.614;2022-07-21T02:38:48;15.80;93.50
73586;DHT22;61865;50.232;18.614;2022-07-21T02:41:11;15.80;94.10
73586;DHT22;61865;50.232;18.614;2022-07-21T02:43:33;15.90;94.00
73586;DHT22;61865;50.232;18.614;2022-07-21T02:45:56;15.90;93.80
73586;DHT22;61865;50.232;18.614;2022-07-21T02:48:19;15.80;93.40
73586;DHT22;61865;50.232;18.614;2022-07-21T02:50:43;15.80;93.80
73586;DHT22;61865;50.232;18.614;2022-07-21T02:53:07;15.80;91.80
73586;DHT22;61865;50.232;18.614;2022-07-21T02:55:29;15.70;88.80
73586;DHT22;61865;50.232;18.614;2022-07-21T02:58:03;15.50;91.40
73586;DHT22;61865;50.232;18.614;2022-07-21T03:00:25;15.40;90.50
73586;DHT22;61865;50.232;18.614;2022-07-21T03:02:48;15.40;92.00
73586;DHT22;61865;50.232;18.614;2022-07-21T03:05:10;15.30;90.70
73586;DHT22;61865;50.232;18.614;2022-07-21T03:07:32;15.20;92.20
73586;DHT22;61865;50.232;18.614;2022-07-21T03:09:54;15.20;92.80
73586;DHT22;61865;50.232;18.614;2022-07-21T03:12:16;15.10;93.00
73586;DHT22;61865;50.232;18.614;2022-07-21T03:14:38;15.10;93.00
73586;DHT22;61865;50.232;18.614;2022-07-21T03:17:00;15.10;93.10
73586;DHT22;61865;50.232;18.614;2022-07-21T03:19:24;15.10;94.30
73586;DHT22;61865;50.232;18.614;2022-07-21T03:21:46;15.20;95.40
73586;DHT22;61865;50.232;18.614;2022-07-21T03:24:08;15.20;95.40
73586;DHT22;61865;50.232;18.614;2022-07-21T03:26:29;15.30;93.60
73586;DHT22;61865;50.232;18.614;2022-07-21T03:28:51;15.30;91.90
73586;DHT22;61865;50.232;18.614;2022-07-21T03:31:13;15.40;91.80
73586;DHT22;61865;50.232;18.614;2022-07-21T03:33:35;15.40;93.40
73586;DHT22;61865;50.232;18.614;2022-07-21T03:35:59;15.60;95.40
73586;DHT22;61865;50.232;18.614;2022-07-21T03:38:21;15.80;95.00
73586;DHT22;61865;50.232;18.614;2022-07-21T03:40:43;15.90;94.90
73586;DHT22;61865;50.232;18.614;2022-07-21T03:43:06;15.90;95.30
73586;DHT22;61865;50.232;18.614;2022-07-21T03:45:30;16.20;93.90
73586;DHT22;61865;50.232;18.614;2022-07-21T03:47:52;16.40;92.40
73586;DHT22;61865;50.232;18.614;2022-07-21T03:50:15;16.60;91.90
73586;DHT22;61865;50.232;18.614;2022-07-21T03:52:39;16.90;90.60
73586;DHT22;61865;50.232;18.614;2022-07-21T03:55:01;17.00;90.30
73586;DHT22;61865;50.232;18.614;2022-07-21T03:57:29;17.10;90.60
73586;DHT22;61865;50.232;18.614;2022-07-21T03:59:51;17.30;90.50
73586;DHT22;61865;50.232;18.614;2022-07-21T04:02:13;17.50;90.30
73586;DHT22;61865;50.232;18.614;2022-07-21T04:04:35;17.70;89.90
73586;DHT22;61865;50.232;18.614;2022-07-21T04:06:57;17.90;86.60
73586;DHT22;61865;50.232;18.614;2022-07-21T04:09:20;18.10;88.50
73586;DHT22;61865;50.232;18.614;2022-07-21T04:11:42;18.20;88.20
73586;DHT22;61865;50.232;18.614;2022-07-21T04:14:04;18.50;88.20
73586;DHT22;61865;50.232;18.614;2022-07-21T04:16:26;18.50;85.50
73586;DHT22;61865;50.232;18.614;2022-07-21T04:18:48;18.80;87.50
73586;DHT22;61865;50.232;18.614;2022-07-21T04:21:10;18.70;87.40
73586;DHT22;61865;50.232;18.614;2022-07-21T04:23:32;18.80;86.50
73586;DHT22;61865;50.232;18.614;2022-07-21T04:25:55;19.00;85.10
73586;DHT22;61865;50.232;18.614;2022-07-21T04:28:17;19.30;86.50
73586;DHT22;61865;50.232;18.614;2022-07-21T04:30:39;19.60;84.70
73586;DHT22;61865;50.232;18.614;2022-07-21T04:33:00;19.90;82.10
73586;DHT22;61865;50.232;18.614;2022-07-21T04:35:23;19.90;81.20
73586;DHT22;61865;50.232;18.614;2022-07-21T04:37:45;20.10;80.10
73586;DHT22;61865;50.232;18.614;2022-07-21T04:40:09;20.00;82.20
73586;DHT22;61865;50.232;18.614;2022-07-21T04:42:33;20.30;79.70
73586;DHT22;61865;50.232;18.614;2022-07-21T04:44:55;20.60;77.30
73586;DHT22;61865;50.232;18.614;2022-07-21T04:47:17;20.90;77.60
73586;DHT22;61865;50.232;18.614;2022-07-21T04:49:39;21.30;73.00
73586;DHT22;61865;50.232;18.614;2022-07-21T04:52:01;21.50;75.20
73586;DHT22;61865;50.232;18.614;2022-07-21T04:54:23;21.50;71.00
73586;DHT22;61865;50.232;18.614;2022-07-21T04:56:45;21.80;74.10
73586;DHT22;61865;50.232;18.614;2022-07-21T04:59:09;22.10;72.30
73586;DHT22;61865;50.232;18.614;2022-07-21T05:01:31;22.30;68.60
73586;DHT22;61865;50.232;18.614;2022-07-21T05:03:53;22.30;66.50
73586;DHT22;61865;50.232;18.614;2022-07-21T05:06:15;22.60;64.10
73586;DHT22;61865;50.232;18.614;2022-07-21T05:08:37;22.80;65.90
73586;DHT22;61865;50.232;18.614;2022-07-21T05:10:58;22.90;65.30
73586;DHT22;61865;50.232;18.614;2022-07-21T05:13:20;23.40;64.70
73586;DHT22;61865;50.232;18.614;2022-07-21T05:15:44;23.30;63.40
73586;DHT22;61865;50.232;18.614;2022-07-21T05:18:07;23.30;65.70
73586;DHT22;61865;50.232;18.614;2022-07-21T05:20:29;23.60;63.20
73586;DHT22;61865;50.232;18.614;2022-07-21T05:22:51;23.50;64.20
73586;DHT22;61865;50.232;18.614;2022-07-21T05:25:13;23.70;64.20
73586;DHT22;61865;50.232;18.614;2022-07-21T05:27:35;24.00;62.90
73586;DHT22;61865;50.232;18.614;2022-07-21T05:29:57;24.20;58.90
73586;DHT22;61865;50.232;18.614;2022-07-21T05:32:20;24.40;58.40
73586;DHT22;61865;50.232;18.614;2022-07-21T05:34:42;24.50;57.90
73586;DHT22;61865;50.232;18.614;2022-07-21T05:37:04;24.60;56.40
73586;DHT22;61865;50.232;18.614;2022-07-21T05:39:26;24.70;56.60
73586;DHT22;61865;50.232;18.614;2022-07-21T05:41:48;24.90;56.30
73586;DHT22;61865;50.232;18.614;2022-07-21T05:44:10;24.90;56.70
73586;DHT22;61865;50.232;18.614;2022-07-21T05:46:32;25.10;54.30
73586;DHT22;61865;50.232;18.614;2022-07-21T05:48:55;25.20;54.60
73586;DHT22;61865;50.232;18.614;2022-07-21T05:51:17;25.30;53.80
73586;DHT22;61865;50.232;18.614;2022-07-21T05:53:39;25.30;53.50
73586;DHT22;61865;50.232;18.614;2022-07-21T05:56:01;25.40;53.20
73586;DHT22;61865;50.232;18.614;2022-07-21T05:58:23;25.60;53.20
73586;DHT22;61865;50.232;18.614;2022-07-21T06:00:45;25.60;52.50
73586;DHT22;61865;50.232;18.614;2022-07-21T06:03:28;25.60;53.50
73586;DHT22;61865;50.232;18.614;2022-07-21T06:05:51;25.80;52.20
73586;DHT22;61865;50.232;18.614;2022-07-21T06:08:13;25.90;51.60
73586;DHT22;61865;50.232;18.614;2022-07-21T06:10:35;25.90;52.40
73586;DHT22;61865;50.232;18.614;2022-07-21T06:12:57;26.00;52.20
73586;DHT22;61865;50.232;18.614;2022-07-21T06:15:19;26.10;51.90
73586;DHT22;61865;50.232;18.614;2022-07-21T06:17:43;26.20;51.50
73586;DHT22;61865;50.232;18.614;2022-07-21T06:20:07;26.40;51.90
73586;DHT22;61865;50.232;18.614;2022-07-21T06:22:30;26.30;51.30
73586;DHT22;61865;50.232;18.614;2022-07-21T06:24:52;26.40;52.10
73586;DHT22;61865;50.232;18.614;2022-07-21T06:27:14;26.40;51.90
73586;DHT22;61865;50.232;18.614;2022-07-21T06:29:36;26.40;52.20
73586;DHT22;61865;50.232;18.614;2022-07-21T06:31:58;26.40;51.50
73586;DHT22;61865;50.232;18.614;2022-07-21T06:34:19;26.40;52.20
73586;DHT22;61865;50.232;18.614;2022-07-21T06:36:41;26.40;52.10
73586;DHT22;61865;50.232;18.614;2022-07-21T06:39:05;26.50;52.20
73586;DHT22;61865;50.232;18.614;2022-07-21T06:41:27;26.50;52.00
73586;DHT22;61865;50.232;18.614;2022-07-21T06:43:49;26.60;51.40
73586;DHT22;61865;50.232;18.614;2022-07-21T06:46:10;26.60;50.60
73586;DHT22;61865;50.232;18.614;2022-07-21T06:48:32;26.80;51.30
73586;DHT22;61865;50.232;18.614;2022-07-21T06:50:55;26.80;51.40
73586;DHT22;61865;50.232;18.614;2022-07-21T06:53:17;26.90;50.20
73586;DHT22;61865;50.232;18.614;2022-07-21T06:55:41;26.90;50.00
73586;DHT22;61865;50.232;18.614;2022-07-21T06:58:10;27.00;49.90
73586;DHT22;61865;50.232;18.614;2022-07-21T07:00:32;27.00;50.40
73586;DHT22;61865;50.232;18.614;2022-07-21T07:02:55;27.20;49.40
73586;DHT22;61865;50.232;18.614;2022-07-21T07:05:17;27.20;48.40
73586;DHT22;61865;50.232;18.614;2022-07-21T07:07:39;27.20;49.90
73586;DHT22;61865;50.232;18.614;2022-07-21T07:10:01;27.30;49.00
73586;DHT22;61865;50.232;18.614;2022-07-21T07:12:24;27.30;49.00
73586;DHT22;61865;50.232;18.614;2022-07-21T07:14:46;27.40;48.60
73586;DHT22;61865;50.232;18.614;2022-07-21T07:17:08;27.50;47.40
73586;DHT22;61865;50.232;18.614;2022-07-21T07:19:31;27.50;47.80
73586;DHT22;61865;50.232;18.614;2022-07-21T07:21:53;27.50;48.30
73586;DHT22;61865;50.232;18.614;2022-07-21T07:24:15;27.50;47.30
73586;DHT22;61865;50.232;18.614;2022-07-21T07:26:37;27.50;47.70
73586;DHT22;61865;50.232;18.614;2022-07-21T07:29:01;27.50;46.40
73586;DHT22;61865;50.232;18.614;2022-07-21T07:31:22;27.60;46.90
73586;DHT22;61865;50.232;18.614;2022-07-21T07:33:44;27.60;46.10
73586;DHT22;61865;50.232;18.614;2022-07-21T07:36:07;27.70;45.60
73586;DHT22;61865;50.232;18.614;2022-07-21T07:38:31;27.80;47.00
73586;DHT22;61865;50.232;18.614;2022-07-21T07:40:53;27.80;45.30
73586;DHT22;61865;50.232;18.614;2022-07-21T07:43:15;27.90;47.00
73586;DHT22;61865;50.232;18.614;2022-07-21T07:45:38;28.00;46.10
73586;DHT22;61865;50.232;18.614;2022-07-21T07:48:00;28.10;45.40
73586;DHT22;61865;50.232;18.614;2022-07-21T07:50:22;28.10;45.90
73586;DHT22;61865;50.232;18.614;2022-07-21T07:52:44;28.20;46.90
73586;DHT22;61865;50.232;18.614;2022-07-21T07:55:07;28.30;44.90
73586;DHT22;61865;50.232;18.614;2022-07-21T07:57:31;28.40;45.10
73586;DHT22;61865;50.232;18.614;2022-07-21T07:59:52;28.50;46.40
73586;DHT22;61865;50.232;18.614;2022-07-21T08:02:16;28.60;45.40
73586;DHT22;61865;50.232;18.614;2022-07-21T08:04:37;28.70;45.30
73586;DHT22;61865;50.232;18.614;2022-07-21T08:07:01;28.70;45.10
73586;DHT22;61865;50.232;18.614;2022-07-21T08:09:23;28.70;46.90
73586;DHT22;61865;50.232;18.614;2022-07-21T08:11:45;28.60;44.70
73586;DHT22;61865;50.232;18.614;2022-07-21T08:14:08;28.60;45.20
73586;DHT22;61865;50.232;18.614;2022-07-21T08:16:29;28.70;44.90
73586;DHT22;61865;50.232;18.614;2022-07-21T08:18:53;28.80;44.30
73586;DHT22;61865;50.232;18.614;2022-07-21T08:21:14;28.90;45.10
73586;DHT22;61865;50.232;18.614;2022-07-21T08:23:37;28.80;44.40
73586;DHT22;61865;50.232;18.614;2022-07-21T08:25:58;28.90;45.30
73586;DHT22;61865;50.232;18.614;2022-07-21T08:28:20;29.10;45.10
73586;DHT22;61865;50.232;18.614;2022-07-21T08:30:42;29.20;43.70
73586;DHT22;61865;50.232;18.614;2022-07-21T08:33:05;29.30;43.20
73586;DHT22;61865;50.232;18.614;2022-07-21T08:35:28;29.30;42.10
73586;DHT22;61865;50.232;18.614;2022-07-21T08:37:54;29.30;43.20
73586;DHT22;61865;50.232;18.614;2022-07-21T08:40:16;29.40;43.10
73586;DHT22;61865;50.232;18.614;2022-07-21T08:42:39;29.50;42.10
73586;DHT22;61865;50.232;18.614;2022-07-21T08:45:01;29.50;42.80
73586;DHT22;61865;50.232;18.614;2022-07-21T08:47:24;29.60;42.20
73586;DHT22;61865;50.232;18.614;2022-07-21T08:49:47;29.60;41.80
73586;DHT22;61865;50.232;18.614;2022-07-21T08:52:11;29.70;39.10
73586;DHT22;61865;50.232;18.614;2022-07-21T08:54:33;29.80;39.20
73586;DHT22;61865;50.232;18.614;2022-07-21T08:56:55;30.00;34.80
73586;DHT22;61865;50.232;18.614;2022-07-21T08:59:17;30.10;37.00
73586;DHT22;61865;50.232;18.614;2022-07-21T09:01:39;30.10;37.50
73586;DHT22;61865;50.232;18.614;2022-07-21T09:04:19;30.20;36.80
73586;DHT22;61865;50.232;18.614;2022-07-21T09:06:49;30.30;37.60
73586;DHT22;61865;50.232;18.614;2022-07-21T09:09:18;30.30;38.00
73586;DHT22;61865;50.232;18.614;2022-07-21T09:11:44;30.50;37.20
73586;DHT22;61865;50.232;18.614;2022-07-21T09:14:07;30.40;35.70
73586;DHT22;61865;50.232;18.614;2022-07-21T09:16:34;30.30;35.00
73586;DHT22;61865;50.232;18.614;2022-07-21T09:18:56;30.30;36.00
73586;DHT22;61865;50.232;18.614;2022-07-21T09:21:18;30.40;35.00
73586;DHT22;61865;50.232;18.614;2022-07-21T09:23:40;30.40;35.60
73586;DHT22;61865;50.232;18.614;2022-07-21T09:26:04;30.40;34.10
73586;DHT22;61865;50.232;18.614;2022-07-21T09:28:27;30.40;35.20
73586;DHT22;61865;50.232;18.614;2022-07-21T09:30:58;30.40;36.50
73586;DHT22;61865;50.232;18.614;2022-07-21T09:33:22;30.40;36.70
73586;DHT22;61865;50.232;18.614;2022-07-21T09:35:52;30.40;35.70
73586;DHT22;61865;50.232;18.614;2022-07-21T09:38:14;30.50;36.30
73586;DHT22;61865;50.232;18.614;2022-07-21T09:40:46;30.50;35.00
73586;DHT22;61865;50.232;18.614;2022-07-21T09:43:09;30.50;34.40
73586;DHT22;61865;50.232;18.614;2022-07-21T09:45:37;30.30;36.30
73586;DHT22;61865;50.232;18.614;2022-07-21T09:47:59;30.30;35.50
73586;DHT22;61865;50.232;18.614;2022-07-21T09:50:21;30.30;34.70
73586;DHT22;61865;50.232;18.614;2022-07-21T09:52:44;30.50;33.50
73586;DHT22;61865;50.232;18.614;2022-07-21T09:55:07;30.60;34.70
73586;DHT22;61865;50.232;18.614;2022-07-21T09:57:30;30.60;35.60
73586;DHT22;61865;50.232;18.614;2022-07-21T09:59:53;30.60;35.80
73586;DHT22;61865;50.232;18.614;2022-07-21T10:02:17;30.70;34.10
73586;DHT22;61865;50.232;18.614;2022-07-21T10:04:39;30.80;34.40
73586;DHT22;61865;50.232;18.614;2022-07-21T10:07:02;30.80;35.30
73586;DHT22;61865;50.232;18.614;2022-07-21T10:09:24;30.90;37.00
73586;DHT22;61865;50.232;18.614;2022-07-21T10:11:46;30.90;36.60
73586;DHT22;61865;50.232;18.614;2022-07-21T10:14:09;30.90;37.40
73586;DHT22;61865;50.232;18.614;2022-07-21T10:16:33;31.00;35.90
73586;DHT22;61865;50.232;18.614;2022-07-21T10:19:15;31.10;34.20
73586;DHT22;61865;50.232;18.614;2022-07-21T10:21:44;31.20;34.10
73586;DHT22;61865;50.232;18.614;2022-07-21T10:24:10;31.20;33.80
73586;DHT22;61865;50.232;18.614;2022-07-21T10:26:32;31.10;34.20
73586;DHT22;61865;50.232;18.614;2022-07-21T10:28:54;31.20;34.60
73586;DHT22;61865;50.232;18.614;2022-07-21T10:31:18;31.30;32.50
73586;DHT22;61865;50.232;18.614;2022-07-21T10:34:02;31.30;33.00
73586;DHT22;61865;50.232;18.614;2022-07-21T10:36:46;31.30;34.20
73586;DHT22;61865;50.232;18.614;2022-07-21T10:39:24;31.40;33.60
73586;DHT22;61865;50.232;18.614;2022-07-21T10:41:48;31.50;34.10
73586;DHT22;61865;50.232;18.614;2022-07-21T10:44:37;31.40;34.40
73586;DHT22;61865;50.232;18.614;2022-07-21T10:47:03;31.50;33.70
73586;DHT22;61865;50.232;18.614;2022-07-21T10:49:42;31.60;36.30
73586;DHT22;61865;50.232;18.614;2022-07-21T10:52:04;31.70;35.20
73586;DHT22;61865;50.232;18.614;2022-07-21T10:54:26;31.60;36.00
73586;DHT22;61865;50.232;18.614;2022-07-21T10:56:48;31.70;36.20
73586;DHT22;61865;50.232;18.614;2022-07-21T10:59:10;31.90;35.00
73586;DHT22;61865;50.232;18.614;2022-07-21T11:01:32;31.90;32.20
73586;DHT22;61865;50.232;18.614;2022-07-21T11:04:07;31.90;31.90
73586;DHT22;61865;50.232;18.614;2022-07-21T11:06:32;31.90;31.20
73586;DHT22;61865;50.232;18.614;2022-07-21T11:09:06;32.00;29.40
73586;DHT22;61865;50.232;18.614;2022-07-21T11:11:29;32.00;30.50
73586;DHT22;61865;50.232;18.614;2022-07-21T11:14:00;32.10;31.10
73586;DHT22;61865;50.232;18.614;2022-07-21T11:16:22;32.10;31.90
73586;DHT22;61865;50.232;18.614;2022-07-21T11:19:01;32.30;29.80
73586;DHT22;61865;50.232;18.614;2022-07-21T11:21:23;32.30;30.70
73586;DHT22;61865;50.232;18.614;2022-07-21T11:23:47;32.30;31.20
73586;DHT22;61865;50.232;18.614;2022-07-21T11:26:09;32.30;30.30
73586;DHT22;61865;50.232;18.614;2022-07-21T11:28:32;32.30;31.10
73586;DHT22;61865;50.232;18.614;2022-07-21T11:31:09;32.50;29.60
73586;DHT22;61865;50.232;18.614;2022-07-21T11:33:31;32.70;29.90
73586;DHT22;61865;50.232;18.614;2022-07-21T11:35:53;32.60;28.90
73586;DHT22;61865;50.232;18.614;2022-07-21T11:38:15;32.60;30.10
73586;DHT22;61865;50.232;18.614;2022-07-21T11:40:38;32.60;29.40
73586;DHT22;61865;50.232;18.614;2022-07-21T11:43:00;32.60;28.20
73586;DHT22;61865;50.232;18.614;2022-07-21T11:45:24;32.60;27.10
73586;DHT22;61865;50.232;18.614;2022-07-21T11:47:48;32.50;29.10
73586;DHT22;61865;50.232;18.614;2022-07-21T11:50:12;32.50;28.20
73586;DHT22;61865;50.232;18.614;2022-07-21T11:52:36;32.50;29.20
73586;DHT22;61865;50.232;18.614;2022-07-21T11:55:00;32.50;29.70
73586;DHT22;61865;50.232;18.614;2022-07-21T11:57:24;32.60;29.70
73586;DHT22;61865;50.232;18.614;2022-07-21T11:59:47;32.50;30.10
73586;DHT22;61865;50.232;18.614;2022-07-21T12:02:10;32.40;29.30
73586;DHT22;61865;50.232;18.614;2022-07-21T12:04:42;32.30;29.20
73586;DHT22;61865;50.232;18.614;2022-07-21T12:07:10;32.40;31.10
73586;DHT22;61865;50.232;18.614;2022-07-21T12:09:33;32.50;29.50
73586;DHT22;61865;50.232;18.614;2022-07-21T12:11:55;32.50;29.10
73586;DHT22;61865;50.232;18.614;2022-07-21T12:14:41;32.60;29.10
73586;DHT22;61865;50.232;18.614;2022-07-21T12:17:03;32.60;29.40
73586;DHT22;61865;50.232;18.614;2022-07-21T12:19:25;32.70;29.30
73586;DHT22;61865;50.232;18.614;2022-07-21T12:21:49;32.70;29.20
73586;DHT22;61865;50.232;18.614;2022-07-21T12:24:11;32.80;29.90
73586;DHT22;61865;50.232;18.614;2022-07-21T12:26:33;32.80;29.90
73586;DHT22;61865;50.232;18.614;2022-07-21T12:28:56;32.80;28.70
73586;DHT22;61865;50.232;18.614;2022-07-21T12:31:21;32.70;30.00
73586;DHT22;61865;50.232;18.614;2022-07-21T12:33:44;32.80;30.00
73586;DHT22;61865;50.232;18.614;2022-07-21T12:36:07;32.80;29.30
73586;DHT22;61865;50.232;18.614;2022-07-21T12:38:37;32.80;28.50
73586;DHT22;61865;50.232;18.614;2022-07-21T12:40:59;33.00;29.10
73586;DHT22;61865;50.232;18.614;2022-07-21T12:43:22;33.20;29.50
73586;DHT22;61865;50.232;18.614;2022-07-21T12:45:55;33.30;30.60
73586;DHT22;61865;50.232;18.614;2022-07-21T12:48:20;33.10;29.60
73586;DHT22;61865;50.232;18.614;2022-07-21T12:50:57;33.00;29.50
73586;DHT22;61865;50.232;18.614;2022-07-21T12:53:19;33.20;29.20
73586;DHT22;61865;50.232;18.614;2022-07-21T12:55:41;33.20;27.50
73586;DHT22;61865;50.232;18.614;2022-07-21T12:58:03;33.20;29.30
73586;DHT22;61865;50.232;18.614;2022-07-21T13:00:25;33.20;29.10
73586;DHT22;61865;50.232;18.614;2022-07-21T13:02:48;33.20;29.60
73586;DHT22;61865;50.232;18.614;2022-07-21T13:05:12;33.30;29.80
73586;DHT22;61865;50.232;18.614;2022-07-21T13:07:34;33.40;29.80
73586;DHT22;61865;50.232;18.614;2022-07-21T13:09:56;33.40;29.30
73586;DHT22;61865;50.232;18.614;2022-07-21T13:12:18;33.40;30.20
73586;DHT22;61865;50.232;18.614;2022-07-21T13:14:41;33.40;29.70
73586;DHT22;61865;50.232;18.614;2022-07-21T13:17:03;33.50;28.70
73586;DHT22;61865;50.232;18.614;2022-07-21T13:19:25;33.50;29.10
73586;DHT22;61865;50.232;18.614;2022-07-21T13:21:49;33.50;29.50
73586;DHT22;61865;50.232;18.614;2022-07-21T13:24:11;33.50;29.60
73586;DHT22;61865;50.232;18.614;2022-07-21T13:26:33;33.50;29.50
73586;DHT22;61865;50.232;18.614;2022-07-21T13:28:55;33.50;28.90
73586;DHT22;61865;50.232;18.614;2022-07-21T13:31:21;33.50;28.00
73586;DHT22;61865;50.232;18.614;2022-07-21T13:33:43;33.50;28.70
73586;DHT22;61865;50.232;18.614;2022-07-21T13:36:07;33.50;27.30
73586;DHT22;61865;50.232;18.614;2022-07-21T13:38:31;33.50;28.30
73586;DHT22;61865;50.232;18.614;2022-07-21T13:40:53;33.50;28.20
73586;DHT22;61865;50.232;18.614;2022-07-21T13:43:15;33.50;27.80
73586;DHT22;61865;50.232;18.614;2022-07-21T13:45:38;33.40;28.60
73586;DHT22;61865;50.232;18.614;2022-07-21T13:48:00;33.50;27.20
73586;DHT22;61865;50.232;18.614;2022-07-21T13:50:22;33.40;27.80
73586;DHT22;61865;50.232;18.614;2022-07-21T13:52:44;33.40;27.90
73586;DHT22;61865;50.232;18.614;2022-07-21T13:55:08;33.40;28.60
73586;DHT22;61865;50.232;18.614;2022-07-21T13:57:31;33.30;28.70
73586;DHT22;61865;50.232;18.614;2022-07-21T13:59:53;33.40;28.30
73586;DHT22;61865;50.232;18.614;2022-07-21T14:02:15;33.40;28.40
73586;DHT22;61865;50.232;18.614;2022-07-21T14:04:37;33.40;27.80
73586;DHT22;61865;50.232;18.614;2022-07-21T14:06:59;33.40;28.20
73586;DHT22;61865;50.232;18.614;2022-07-21T14:09:21;33.30;27.80
73586;DHT22;61865;50.232;18.614;2022-07-21T14:11:45;33.30;28.60
73586;DHT22;61865;50.232;18.614;2022-07-21T14:14:07;33.50;28.30
73586;DHT22;61865;50.232;18.614;2022-07-21T14:16:29;33.50;27.80
73586;DHT22;61865;50.232;18.614;2022-07-21T14:18:51;33.50;27.00
73586;DHT22;61865;50.232;18.614;2022-07-21T14:21:14;33.40;25.60
73586;DHT22;61865;50.232;18.614;2022-07-21T14:23:36;33.40;26.60
73586;DHT22;61865;50.232;18.614;2022-07-21T14:25:58;33.30;26.00
73586;DHT22;61865;50.232;18.614;2022-07-21T14:28:22;33.30;26.60
73586;DHT22;61865;50.232;18.614;2022-07-21T14:30:45;33.30;26.70
73586;DHT22;61865;50.232;18.614;2022-07-21T14:33:07;33.40;26.60
73586;DHT22;61865;50.232;18.614;2022-07-21T14:35:29;33.40;26.60
73586;DHT22;61865;50.232;18.614;2022-07-21T14:37:51;33.50;26.70
73586;DHT22;61865;50.232;18.614;2022-07-21T14:40:15;33.60;26.40
73586;DHT22;61865;50.232;18.614;2022-07-21T14:42:38;33.60;26.50
73586;DHT22;61865;50.232;18.614;2022-07-21T14:45:01;33.50;26.80
73586;DHT22;61865;50.232;18.614;2022-07-21T14:47:24;33.50;27.10
73586;DHT22;61865;50.232;18.614;2022-07-21T14:49:46;33.50;26.10
73586;DHT22;61865;50.232;18.614;2022-07-21T14:52:08;33.50;26.30